sensor_id;sensor_type;location;lat;lon;timestamp;temperature;humidity
3488;DHT22;38546;48.170;11.724;2023-04-22T00:00:27;9.80;99.90
3488;DHT22;38546;48.170;11.724;2023-04-22T00:03:16;9.80;99.90
3488;DHT22;38546;48.170;11.724;2023-04-22T00:06:05;9.70;99.90
3488;DHT22;38546;48.170;11.724;2023-04-22T00:08:55;9.70;99.90
3488;DHT22;38546;48.170;11.724;2023-04-22T00:11:43;9.60;99.90
3488;DHT22;38546;48.170;11.724;2023-04-22T00:14:33;9.50;99.90
3488;DHT22;38546;48.170;11.724;2023-04-22T00:17:22;9.40;99.90
3488;DHT22;38546;48.170;11.724;2023-04-22T00:20:12;9.40;99.90
3488;DHT22;38546;48.170;11.724;2023-04-22T00:23:01;9.30;99.90
3488;DHT22;38546;48.170;11.724;2023-04-22T00:25:50;9.30;99.90
3488;DHT22;38546;48.170;11.724;2023-04-22T00:28:40;9.20;99.90
3488;DHT22;38546;48.170;11.724;2023-04-22T00:31:29;9.20;99.90
3488;DHT22;38546;48.170;11.724;2023-04-22T00:34:18;9.10;99.90
3488;DHT22;38546;48.170;11.724;2023-04-22T00:37:08;9.10;99.90
3488;DHT22;38546;48.170;11.724;2023-04-22T00:39:58;9.00;99.90
3488;DHT22;38546;48.170;11.724;2023-04-22T00:42:49;9.00;99.90
3488;DHT22;38546;48.170;11.724;2023-04-22T00:45:39;9.00;99.90
3488;DHT22;38546;48.170;11.724;2023-04-22T00:48:31;9.00;99.90
3488;DHT22;38546;48.170;11.724;2023-04-22T00:51:20;9.00;99.90
3488;DHT22;38546;48.170;11.724;2023-04-22T00:54:10;8.90;99.90
3488;DHT22;38546;48.170;11.724;2023-04-22T00:56:59;8.90;99.90
3488;DHT22;38546;48.170;11.724;2023-04-22T00:59:49;8.90;99.90
3488;DHT22;38546;48.170;11.724;2023-04-22T01:02:39;8.80;99.90
3488;DHT22;38546;48.170;11.724;2023-04-22T01:05:30;8.80;99.90
3488;DHT22;38546;48.170;11.724;2023-04-22T01:08:20;8.70;99.90
3488;DHT22;38546;48.170;11.724;2023-04-22T01:11:10;8.70;99.90
3488;DHT22;38546;48.170;11.724;2023-04-22T01:13:59;8.60;99.90
3488;DHT22;38546;48.170;11.724;2023-04-22T01:16:50;8.60;99.90
3488;DHT22;38546;48.170;11.724;2023-04-22T01:19:42;8.60;99.90
3488;DHT22;38546;48.170;11.724;2023-04-22T01:22:36;8.60;99.90
3488;DHT22;38546;48.170;11.724;2023-04-22T01:25:29;8.70;99.90
3488;DHT22;38546;48.170;11.724;2023-04-22T01:28:18;8.60;99.90
3488;DHT22;38546;48.170;11.724;2023-04-22T01:31:08;8.60;99.90
3488;DHT22;38546;48.170;11.724;2023-04-22T01:33:58;8.70;99.90
3488;DHT22;38546;48.170;11.724;2023-04-22T01:36:48;8.70;99.90
3488;DHT22;38546;48.170;11.724;2023-04-22T01:39:38;8.70;99.90
3488;DHT22;38546;48.170;11.724;2023-04-22T01:42:28;8.60;99.90
3488;DHT22;38546;48.170;11.724;2023-04-22T01:45:17;8.60;99.90
3488;DHT22;38546;48.170;11.724;2023-04-22T01:48:07;8.60;99.90
3488;DHT22;38546;48.170;11.724;2023-04-22T01:50:56;8.60;99.90
3488;DHT22;38546;48.170;11.724;2023-04-22T01:53:49;8.60;99.90
3488;DHT22;38546;48.170;11.724;2023-04-22T01:56:39;8.50;99.90
3488;DHT22;38546;48.170;11.724;2023-04-22T01:59:29;8.50;99.90
3488;DHT22;38546;48.170;11.724;2023-04-22T02:02:18;8.40;99.90
3488;DHT22;38546;48.170;11.724;2023-04-22T02:05:08;8.40;99.90
3488;DHT22;38546;48.170;11.724;2023-04-22T02:07:58;8.40;99.90
3488;DHT22;38546;48.170;11.724;2023-04-22T02:10:47;8.40;99.90
3488;DHT22;38546;48.170;11.724;2023-04-22T02:13:37;8.30;99.90
3488;DHT22;38546;48.170;11.724;2023-04-22T02:16:30;8.30;99.90
3488;DHT22;38546;48.170;11.724;2023-04-22T02:19:19;8.20;99.90
3488;DHT22;38546;48.170;11.724;2023-04-22T02:22:08;8.20;99.90
3488;DHT22;38546;48.170;11.724;2023-04-22T02:24:58;8.20;99.90
3488;DHT22;38546;48.170;11.724;2023-04-22T02:27:47;8.20;99.90
3488;DHT22;38546;48.170;11.724;2023-04-22T02:30:36;8.20;99.90
3488;DHT22;38546;48.170;11.724;2023-04-22T02:33:25;8.20;99.90
3488;DHT22;38546;48.170;11.724;2023-04-22T02:36:15;8.10;99.90
3488;DHT22;38546;48.170;11.724;2023-04-22T02:39:04;8.10;99.90
3488;DHT22;38546;48.170;11.724;2023-04-22T02:41:54;8.10;99.90
3488;DHT22;38546;48.170;11.724;2023-04-22T02:44:43;8.00;99.90
3488;DHT22;38546;48.170;11.724;2023-04-22T02:47:32;8.00;99.90
3488;DHT22;38546;48.170;11.724;2023-04-22T02:50:21;7.90;99.90
3488;DHT22;38546;48.170;11.724;2023-04-22T02:53:10;7.90;99.90
3488;DHT22;38546;48.170;11.724;2023-04-22T02:56:00;7.80;99.90
3488;DHT22;38546;48.170;11.724;2023-04-22T02:58:49;7.80;99.90
3488;DHT22;38546;48.170;11.724;2023-04-22T03:01:38;7.80;99.90
3488;DHT22;38546;48.170;11.724;2023-04-22T03:04:27;7.70;99.90
3488;DHT22;38546;48.170;11.724;2023-04-22T03:07:16;7.70;99.90
3488;DHT22;38546;48.170;11.724;2023-04-22T03:10:06;7.70;99.90
3488;DHT22;38546;48.170;11.724;2023-04-22T03:12:56;7.70;99.90
3488;DHT22;38546;48.170;11.724;2023-04-22T03:15:45;7.70;99.90
3488;DHT22;38546;48.170;11.724;2023-04-22T03:18:34;7.70;99.90
3488;DHT22;38546;48.170;11.724;2023-04-22T03:21:23;7.70;99.90
3488;DHT22;38546;48.170;11.724;2023-04-22T03:24:13;7.70;99.90
3488;DHT22;38546;48.170;11.724;2023-04-22T03:27:03;7.70;99.90
3488;DHT22;38546;48.170;11.724;2023-04-22T03:29:52;7.70;99.90
3488;DHT22;38546;48.170;11.724;2023-04-22T03:32:42;7.60;99.90
3488;DHT22;38546;48.170;11.724;2023-04-22T03:35:31;7.60;99.90
3488;DHT22;38546;48.170;11.724;2023-04-22T03:38:20;7.50;99.90
3488;DHT22;38546;48.170;11.724;2023-04-22T03:41:09;7.50;99.90
3488;DHT22;38546;48.170;11.724;2023-04-22T03:43:59;7.50;99.90
3488;DHT22;38546;48.170;11.724;2023-04-22T03:46:48;7.50;99.90
3488;DHT22;38546;48.170;11.724;2023-04-22T03:49:37;7.50;99.90
3488;DHT22;38546;48.170;11.724;2023-04-22T03:52:26;7.40;99.90
3488;DHT22;38546;48.170;11.724;2023-04-22T03:55:15;7.40;99.90
3488;DHT22;38546;48.170;11.724;2023-04-22T03:58:04;7.40;99.90
3488;DHT22;38546;48.170;11.724;2023-04-22T04:00:53;7.30;99.90
3488;DHT22;38546;48.170;11.724;2023-04-22T04:03:42;7.30;99.90
3488;DHT22;38546;48.170;11.724;2023-04-22T04:06:31;7.30;99.90
3488;DHT22;38546;48.170;11.724;2023-04-22T04:09:21;7.20;99.90
3488;DHT22;38546;48.170;11.724;2023-04-22T04:12:11;7.20;99.90
3488;DHT22;38546;48.170;11.724;2023-04-22T04:15:00;7.10;99.90
3488;DHT22;38546;48.170;11.724;2023-04-22T04:17:49;7.00;99.90
3488;DHT22;38546;48.170;11.724;2023-04-22T04:20:39;7.00;99.90
3488;DHT22;38546;48.170;11.724;2023-04-22T04:23:29;6.90;99.90
3488;DHT22;38546;48.170;11.724;2023-04-22T04:26:18;6.90;99.90
3488;DHT22;38546;48.170;11.724;2023-04-22T04:29:08;6.90;99.90
3488;DHT22;38546;48.170;11.724;2023-04-22T04:31:58;6.90;99.90
3488;DHT22;38546;48.170;11.724;2023-04-22T04:34:47;6.90;99.90
3488;DHT22;38546;48.170;11.724;2023-04-22T04:37:36;6.80;99.90
3488;DHT22;38546;48.170;11.724;2023-04-22T04:40:28;6.80;99.90
3488;DHT22;38546;48.170;11.724;2023-04-22T04:43:19;6.80;99.90
3488;DHT22;38546;48.170;11.724;2023-04-22T04:46:08;6.80;99.90
3488;DHT22;38546;48.170;11.724;2023-04-22T04:48:57;6.80;99.90
3488;DHT22;38546;48.170;11.724;2023-04-22T04:51:47;6.80;99.90
3488;DHT22;38546;48.170;11.724;2023-04-22T04:54:37;6.90;99.90
3488;DHT22;38546;48.170;11.724;2023-04-22T04:57:26;6.90;99.90
3488;DHT22;38546;48.170;11.724;2023-04-22T05:00:15;7.00;99.90
3488;DHT22;38546;48.170;11.724;2023-04-22T05:03:05;7.10;99.90
3488;DHT22;38546;48.170;11.724;2023-04-22T05:05:54;7.10;99.90
3488;DHT22;38546;48.170;11.724;2023-04-22T05:08:44;7.20;99.90
3488;DHT22;38546;48.170;11.724;2023-04-22T05:11:34;7.40;99.90
3488;DHT22;38546;48.170;11.724;2023-04-22T05:14:24;7.40;99.90
3488;DHT22;38546;48.170;11.724;2023-04-22T05:17:13;7.50;99.90
3488;DHT22;38546;48.170;11.724;2023-04-22T05:20:03;7.60;99.90
3488;DHT22;38546;48.170;11.724;2023-04-22T05:22:53;7.70;99.90
3488;DHT22;38546;48.170;11.724;2023-04-22T05:25:42;7.80;99.90
3488;DHT22;38546;48.170;11.724;2023-04-22T05:28:31;7.90;99.90
3488;DHT22;38546;48.170;11.724;2023-04-22T05:31:21;8.00;99.90
3488;DHT22;38546;48.170;11.724;2023-04-22T05:34:11;8.10;99.90
3488;DHT22;38546;48.170;11.724;2023-04-22T05:37:03;8.10;99.90
3488;DHT22;38546;48.170;11.724;2023-04-22T05:39:54;8.20;99.90
3488;DHT22;38546;48.170;11.724;2023-04-22T05:42:43;8.30;99.90
3488;DHT22;38546;48.170;11.724;2023-04-22T05:45:33;8.40;99.90
3488;DHT22;38546;48.170;11.724;2023-04-22T05:48:22;8.50;99.90
3488;DHT22;38546;48.170;11.724;2023-04-22T05:51:11;8.60;99.90
3488;DHT22;38546;48.170;11.724;2023-04-22T05:54:00;8.70;99.90
3488;DHT22;38546;48.170;11.724;2023-04-22T05:56:49;8.80;99.90
3488;DHT22;38546;48.170;11.724;2023-04-22T05:59:39;8.90;99.90
3488;DHT22;38546;48.170;11.724;2023-04-22T06:02:29;9.10;99.90
3488;DHT22;38546;48.170;11.724;2023-04-22T06:05:18;9.20;99.90
3488;DHT22;38546;48.170;11.724;2023-04-22T06:08:07;9.30;99.90
3488;DHT22;38546;48.170;11.724;2023-04-22T06:10:57;9.50;99.90
3488;DHT22;38546;48.170;11.724;2023-04-22T06:13:46;9.70;99.90
3488;DHT22;38546;48.170;11.724;2023-04-22T06:16:35;9.80;99.90
3488;DHT22;38546;48.170;11.724;2023-04-22T06:19:25;10.00;99.90
3488;DHT22;38546;48.170;11.724;2023-04-22T06:22:15;10.20;99.90
3488;DHT22;38546;48.170;11.724;2023-04-22T06:25:05;10.30;99.90
3488;DHT22;38546;48.170;11.724;2023-04-22T06:27:54;10.50;99.90
3488;DHT22;38546;48.170;11.724;2023-04-22T06:30:44;10.70;99.90
3488;DHT22;38546;48.170;11.724;2023-04-22T06:33:34;10.90;99.90
3488;DHT22;38546;48.170;11.724;2023-04-22T06:36:24;11.20;99.90
3488;DHT22;38546;48.170;11.724;2023-04-22T06:39:13;11.40;99.90
3488;DHT22;38546;48.170;11.724;2023-04-22T06:42:03;11.60;99.90
3488;DHT22;38546;48.170;11.724;2023-04-22T06:44:52;11.90;99.90
3488;DHT22;38546;48.170;11.724;2023-04-22T06:47:42;12.10;99.90
3488;DHT22;38546;48.170;11.724;2023-04-22T06:50:31;12.30;99.90
3488;DHT22;38546;48.170;11.724;2023-04-22T06:53:20;12.60;99.90
3488;DHT22;38546;48.170;11.724;2023-04-22T06:56:10;12.90;99.90
3488;DHT22;38546;48.170;11.724;2023-04-22T06:58:59;13.20;99.90
3488;DHT22;38546;48.170;11.724;2023-04-22T07:01:49;13.40;99.90
3488;DHT22;38546;48.170;11.724;2023-04-22T07:04:37;13.60;99.90
3488;DHT22;38546;48.170;11.724;2023-04-22T07:07:26;13.80;99.90
3488;DHT22;38546;48.170;11.724;2023-04-22T07:10:16;13.90;99.90
3488;DHT22;38546;48.170;11.724;2023-04-22T07:13:05;14.10;99.90
3488;DHT22;38546;48.170;11.724;2023-04-22T07:15:54;14.20;99.90
3488;DHT22;38546;48.170;11.724;2023-04-22T07:18:43;14.40;99.90
3488;DHT22;38546;48.170;11.724;2023-04-22T07:21:32;14.50;99.90
3488;DHT22;38546;48.170;11.724;2023-04-22T07:24:22;14.60;99.90
3488;DHT22;38546;48.170;11.724;2023-04-22T07:27:11;14.80;99.90
3488;DHT22;38546;48.170;11.724;2023-04-22T07:30:00;14.90;99.90
3488;DHT22;38546;48.170;11.724;2023-04-22T07:32:49;14.90;99.90
3488;DHT22;38546;48.170;11.724;2023-04-22T07:35:39;15.10;99.90
3488;DHT22;38546;48.170;11.724;2023-04-22T07:38:29;15.20;99.90
3488;DHT22;38546;48.170;11.724;2023-04-22T07:41:18;15.30;99.90
3488;DHT22;38546;48.170;11.724;2023-04-22T07:44:07;15.40;99.90
3488;DHT22;38546;48.170;11.724;2023-04-22T07:46:58;15.50;99.90
3488;DHT22;38546;48.170;11.724;2023-04-22T07:49:47;15.60;99.90
3488;DHT22;38546;48.170;11.724;2023-04-22T07:52:37;15.70;99.90
3488;DHT22;38546;48.170;11.724;2023-04-22T07:55:26;16.00;99.90
3488;DHT22;38546;48.170;11.724;2023-04-22T07:58:15;16.00;99.90
3488;DHT22;38546;48.170;11.724;2023-04-22T08:01:04;16.00;99.90
3488;DHT22;38546;48.170;11.724;2023-04-22T08:03:54;16.00;99.90
3488;DHT22;38546;48.170;11.724;2023-04-22T08:06:44;16.10;99.90
3488;DHT22;38546;48.170;11.724;2023-04-22T08:09:33;16.10;99.90
3488;DHT22;38546;48.170;11.724;2023-04-22T08:12:22;16.20;99.90
3488;DHT22;38546;48.170;11.724;2023-04-22T08:15:12;16.40;99.90
3488;DHT22;38546;48.170;11.724;2023-04-22T08:18:01;16.50;99.90
3488;DHT22;38546;48.170;11.724;2023-04-22T08:20:51;16.60;99.90
3488;DHT22;38546;48.170;11.724;2023-04-22T08:23:40;16.70;99.90
3488;DHT22;38546;48.170;11.724;2023-04-22T08:26:30;16.70;99.90
3488;DHT22;38546;48.170;11.724;2023-04-22T08:29:19;16.80;99.90
3488;DHT22;38546;48.170;11.724;2023-04-22T08:32:08;17.00;99.90
3488;DHT22;38546;48.170;11.724;2023-04-22T08:34:58;17.10;99.90
3488;DHT22;38546;48.170;11.724;2023-04-22T08:37:47;17.20;99.90
3488;DHT22;38546;48.170;11.724;2023-04-22T08:40:40;17.20;99.90
3488;DHT22;38546;48.170;11.724;2023-04-22T08:43:31;17.20;99.90
3488;DHT22;38546;48.170;11.724;2023-04-22T08:46:21;17.30;99.90
3488;DHT22;38546;48.170;11.724;2023-04-22T08:49:17;17.50;99.90
3488;DHT22;38546;48.170;11.724;2023-04-22T08:52:07;17.80;99.90
3488;DHT22;38546;48.170;11.724;2023-04-22T08:54:58;18.00;99.90
3488;DHT22;38546;48.170;11.724;2023-04-22T08:57:48;17.80;99.90
3488;DHT22;38546;48.170;11.724;2023-04-22T09:00:42;18.00;99.90
3488;DHT22;38546;48.170;11.724;2023-04-22T09:03:37;18.20;99.90
3488;DHT22;38546;48.170;11.724;2023-04-22T09:06:29;18.30;99.90
3488;DHT22;38546;48.170;11.724;2023-04-22T09:09:20;18.40;99.90
3488;DHT22;38546;48.170;11.724;2023-04-22T09:12:10;18.50;99.90
3488;DHT22;38546;48.170;11.724;2023-04-22T09:14:59;18.60;99.90
3488;DHT22;38546;48.170;11.724;2023-04-22T09:17:50;18.90;99.90
3488;DHT22;38546;48.170;11.724;2023-04-22T09:20:41;19.00;99.90
3488;DHT22;38546;48.170;11.724;2023-04-22T09:23:30;19.00;99.90
3488;DHT22;38546;48.170;11.724;2023-04-22T09:26:20;19.00;99.90
3488;DHT22;38546;48.170;11.724;2023-04-22T09:29:14;19.20;99.90
3488;DHT22;38546;48.170;11.724;2023-04-22T09:32:10;19.20;99.50
3488;DHT22;38546;48.170;11.724;2023-04-22T09:35:00;19.30;98.80
3488;DHT22;38546;48.170;11.724;2023-04-22T09:37:51;19.50;99.80
3488;DHT22;38546;48.170;11.724;2023-04-22T09:40:42;19.70;99.00
3488;DHT22;38546;48.170;11.724;2023-04-22T09:43:31;19.90;99.40
3488;DHT22;38546;48.170;11.724;2023-04-22T09:46:22;20.00;98.20
3488;DHT22;38546;48.170;11.724;2023-04-22T09:49:15;20.10;97.70
3488;DHT22;38546;48.170;11.724;2023-04-22T09:52:05;20.40;97.70
3488;DHT22;38546;48.170;11.724;2023-04-22T09:54:54;20.70;98.60
3488;DHT22;38546;48.170;11.724;2023-04-22T09:57:43;20.90;97.80
3488;DHT22;38546;48.170;11.724;2023-04-22T10:00:57;21.10;97.50
3488;DHT22;38546;48.170;11.724;2023-04-22T10:03:46;21.40;98.10
3488;DHT22;38546;48.170;11.724;2023-04-22T10:06:37;21.50;96.40
3488;DHT22;38546;48.170;11.724;2023-04-22T10:09:26;21.40;94.70
3488;DHT22;38546;48.170;11.724;2023-04-22T10:12:16;21.30;95.20
3488;DHT22;38546;48.170;11.724;2023-04-22T10:15:07;21.40;94.90
3488;DHT22;38546;48.170;11.724;2023-04-22T10:17:57;21.60;95.50
3488;DHT22;38546;48.170;11.724;2023-04-22T10:20:47;21.70;96.50
3488;DHT22;38546;48.170;11.724;2023-04-22T10:23:37;21.80;94.10
3488;DHT22;38546;48.170;11.724;2023-04-22T10:26:42;22.00;95.30
3488;DHT22;38546;48.170;11.724;2023-04-22T10:29:39;22.30;95.60
3488;DHT22;38546;48.170;11.724;2023-04-22T10:32:30;22.40;92.70
3488;DHT22;38546;48.170;11.724;2023-04-22T10:35:26;22.60;93.70
3488;DHT22;38546;48.170;11.724;2023-04-22T10:38:17;22.70;93.60
3488;DHT22;38546;48.170;11.724;2023-04-22T10:41:12;22.80;94.10
3488;DHT22;38546;48.170;11.724;2023-04-22T10:44:06;23.10;94.20
3488;DHT22;38546;48.170;11.724;2023-04-22T10:46:57;23.20;92.80
3488;DHT22;38546;48.170;11.724;2023-04-22T10:49:49;23.10;91.40
3488;DHT22;38546;48.170;11.724;2023-04-22T10:52:41;23.30;88.20
3488;DHT22;38546;48.170;11.724;2023-04-22T10:55:49;22.90;91.00
3488;DHT22;38546;48.170;11.724;2023-04-22T10:58:39;22.70;88.20
3488;DHT22;38546;48.170;11.724;2023-04-22T11:01:29;22.80;87.50
3488;DHT22;38546;48.170;11.724;2023-04-22T11:04:20;22.70;91.00
3488;DHT22;38546;48.170;11.724;2023-04-22T11:11:17;22.70;89.80
3488;DHT22;38546;48.170;11.724;2023-04-22T11:14:08;22.80;90.90
3488;DHT22;38546;48.170;11.724;2023-04-22T11:16:57;22.90;91.10
3488;DHT22;38546;48.170;11.724;2023-04-22T11:19:47;23.00;91.80
3488;DHT22;38546;48.170;11.724;2023-04-22T11:22:38;22.80;88.10
3488;DHT22;38546;48.170;11.724;2023-04-22T11:25:30;22.40;91.00
3488;DHT22;38546;48.170;11.724;2023-04-22T11:28:20;22.50;87.80
3488;DHT22;38546;48.170;11.724;2023-04-22T11:31:10;22.00;89.60
3488;DHT22;38546;48.170;11.724;2023-04-22T11:34:00;21.90;91.50
3488;DHT22;38546;48.170;11.724;2023-04-22T11:36:49;22.00;91.20
3488;DHT22;38546;48.170;11.724;2023-04-22T11:39:38;21.90;91.00
3488;DHT22;38546;48.170;11.724;2023-04-22T11:42:27;22.00;90.30
3488;DHT22;38546;48.170;11.724;2023-04-22T11:45:17;21.80;89.30
3488;DHT22;38546;48.170;11.724;2023-04-22T11:48:10;22.20;88.60
3488;DHT22;38546;48.170;11.724;2023-04-22T11:51:08;22.10;88.60
3488;DHT22;38546;48.170;11.724;2023-04-22T11:53:59;22.00;88.20
3488;DHT22;38546;48.170;11.724;2023-04-22T11:56:48;22.00;89.00
3488;DHT22;38546;48.170;11.724;2023-04-22T11:59:38;22.10;89.40
3488;DHT22;38546;48.170;11.724;2023-04-22T12:02:27;22.20;89.90
3488;DHT22;38546;48.170;11.724;2023-04-22T12:05:16;22.10;91.20
3488;DHT22;38546;48.170;11.724;2023-04-22T12:08:14;21.90;90.00
3488;DHT22;38546;48.170;11.724;2023-04-22T12:11:07;21.80;88.70
3488;DHT22;38546;48.170;11.724;2023-04-22T12:14:05;21.90;88.80
3488;DHT22;38546;48.170;11.724;2023-04-22T12:16:54;21.60;86.90
3488;DHT22;38546;48.170;11.724;2023-04-22T12:19:46;21.70;90.20
3488;DHT22;38546;48.170;11.724;2023-04-22T12:22:35;22.00;87.90
3488;DHT22;38546;48.170;11.724;2023-04-22T12:25:26;22.00;89.70
3488;DHT22;38546;48.170;11.724;2023-04-22T12:28:15;22.10;90.10
3488;DHT22;38546;48.170;11.724;2023-04-22T12:31:05;22.00;90.70
3488;DHT22;38546;48.170;11.724;2023-04-22T12:33:55;22.30;88.10
3488;DHT22;38546;48.170;11.724;2023-04-22T12:36:45;22.10;88.80
3488;DHT22;38546;48.170;11.724;2023-04-22T12:39:34;22.20;88.00
3488;DHT22;38546;48.170;11.724;2023-04-22T12:42:23;21.90;88.30
3488;DHT22;38546;48.170;11.724;2023-04-22T12:45:12;21.90;88.70
3488;DHT22;38546;48.170;11.724;2023-04-22T12:48:02;21.70;90.10
3488;DHT22;38546;48.170;11.724;2023-04-22T12:50:52;21.80;90.50
3488;DHT22;38546;48.170;11.724;2023-04-22T12:53:42;21.60;90.90
3488;DHT22;38546;48.170;11.724;2023-04-22T12:56:31;21.70;87.80
3488;DHT22;38546;48.170;11.724;2023-04-22T12:59:20;21.60;88.60
3488;DHT22;38546;48.170;11.724;2023-04-22T13:02:09;21.80;90.00
3488;DHT22;38546;48.170;11.724;2023-04-22T13:04:58;21.70;90.10
3488;DHT22;38546;48.170;11.724;2023-04-22T13:07:48;21.60;90.10
3488;DHT22;38546;48.170;11.724;2023-04-22T13:10:37;21.50;90.00
3488;DHT22;38546;48.170;11.724;2023-04-22T13:13:26;21.50;90.10
3488;DHT22;38546;48.170;11.724;2023-04-22T13:16:16;21.60;89.80
3488;DHT22;38546;48.170;11.724;2023-04-22T13:19:05;21.60;86.80
3488;DHT22;38546;48.170;11.724;2023-04-22T13:21:56;21.60;88.80
3488;DHT22;38546;48.170;11.724;2023-04-22T13:24:45;21.60;89.50
3488;DHT22;38546;48.170;11.724;2023-04-22T13:27:35;21.70;87.70
3488;DHT22;38546;48.170;11.724;2023-04-22T13:30:24;21.80;88.10
3488;DHT22;38546;48.170;11.724;2023-04-22T13:33:14;21.80;88.50
3488;DHT22;38546;48.170;11.724;2023-04-22T13:36:04;21.90;90.30
3488;DHT22;38546;48.170;11.724;2023-04-22T13:38:53;22.20;90.10
3488;DHT22;38546;48.170;11.724;2023-04-22T13:41:43;21.50;91.50
3488;DHT22;38546;48.170;11.724;2023-04-22T13:44:33;21.30;90.40
3488;DHT22;38546;48.170;11.724;2023-04-22T13:47:23;21.60;90.80
3488;DHT22;38546;48.170;11.724;2023-04-22T13:50:12;21.50;90.70
3488;DHT22;38546;48.170;11.724;2023-04-22T13:53:01;21.60;90.20
3488;DHT22;38546;48.170;11.724;2023-04-22T13:55:51;21.80;91.10
3488;DHT22;38546;48.170;11.724;2023-04-22T13:58:40;22.30;91.20
3488;DHT22;38546;48.170;11.724;2023-04-22T14:01:31;22.00;91.30
3488;DHT22;38546;48.170;11.724;2023-04-22T14:04:21;22.00;90.20
3488;DHT22;38546;48.170;11.724;2023-04-22T14:07:11;22.10;89.70
3488;DHT22;38546;48.170;11.724;2023-04-22T14:10:00;21.70;90.20
3488;DHT22;38546;48.170;11.724;2023-04-22T14:12:50;21.60;90.80
3488;DHT22;38546;48.170;11.724;2023-04-22T14:15:39;21.30;91.10
3488;DHT22;38546;48.170;11.724;2023-04-22T14:18:29;21.60;90.40
3488;DHT22;38546;48.170;11.724;2023-04-22T14:21:19;21.60;90.30
3488;DHT22;38546;48.170;11.724;2023-04-22T14:24:08;21.70;88.80
3488;DHT22;38546;48.170;11.724;2023-04-22T14:26:58;21.70;89.10
3488;DHT22;38546;48.170;11.724;2023-04-22T14:29:49;21.60;89.30
3488;DHT22;38546;48.170;11.724;2023-04-22T14:32:41;21.40;88.20
3488;DHT22;38546;48.170;11.724;2023-04-22T14:35:30;21.30;90.00
3488;DHT22;38546;48.170;11.724;2023-04-22T14:38:24;21.60;89.70
3488;DHT22;38546;48.170;11.724;2023-04-22T14:41:14;21.60;86.90
3488;DHT22;38546;48.170;11.724;2023-04-22T14:44:03;21.60;89.40
3488;DHT22;38546;48.170;11.724;2023-04-22T14:46:52;21.50;88.00
3488;DHT22;38546;48.170;11.724;2023-04-22T14:49:41;21.60;88.60
3488;DHT22;38546;48.170;11.724;2023-04-22T14:52:31;21.40;87.90
3488;DHT22;38546;48.170;11.724;2023-04-22T14:55:21;21.60;88.60
3488;DHT22;38546;48.170;11.724;2023-04-22T14:58:11;21.50;87.60
3488;DHT22;38546;48.170;11.724;2023-04-22T15:01:00;21.70;86.80
3488;DHT22;38546;48.170;11.724;2023-04-22T15:03:49;21.60;86.70
3488;DHT22;38546;48.170;11.724;2023-04-22T15:06:40;21.80;89.50
3488;DHT22;38546;48.170;11.724;2023-04-22T15:09:29;21.70;88.70
3488;DHT22;38546;48.170;11.724;2023-04-22T15:12:19;21.70;89.50
3488;DHT22;38546;48.170;11.724;2023-04-22T15:15:08;21.50;89.60
3488;DHT22;38546;48.170;11.724;2023-04-22T15:18:01;21.50;89.00
3488;DHT22;38546;48.170;11.724;2023-04-22T15:20:50;21.40;90.50
3488;DHT22;38546;48.170;11.724;2023-04-22T15:23:39;21.20;85.70
3488;DHT22;38546;48.170;11.724;2023-04-22T15:26:28;21.20;87.70
3488;DHT22;38546;48.170;11.724;2023-04-22T15:29:18;21.00;87.20
3488;DHT22;38546;48.170;11.724;2023-04-22T15:32:07;21.00;89.40
3488;DHT22;38546;48.170;11.724;2023-04-22T15:34:56;21.10;88.80
3488;DHT22;38546;48.170;11.724;2023-04-22T15:37:46;21.00;87.90
3488;DHT22;38546;48.170;11.724;2023-04-22T15:40:35;21.20;87.70
3488;DHT22;38546;48.170;11.724;2023-04-22T15:43:24;21.00;86.80
3488;DHT22;38546;48.170;11.724;2023-04-22T15:46:13;21.00;88.50
3488;DHT22;38546;48.170;11.724;2023-04-22T15:49:03;21.00;86.10
3488;DHT22;38546;48.170;11.724;2023-04-22T15:51:53;20.90;87.90
3488;DHT22;38546;48.170;11.724;2023-04-22T15:54:43;21.20;88.00
3488;DHT22;38546;48.170;11.724;2023-04-22T15:57:32;21.10;88.80
3488;DHT22;38546;48.170;11.724;2023-04-22T16:00:24;21.00;90.00
3488;DHT22;38546;48.170;11.724;2023-04-22T16:03:14;21.00;88.70
3488;DHT22;38546;48.170;11.724;2023-04-22T16:06:04;20.90;88.50
3488;DHT22;38546;48.170;11.724;2023-04-22T16:08:53;20.90;90.10
3488;DHT22;38546;48.170;11.724;2023-04-22T16:11:43;20.80;88.50
3488;DHT22;38546;48.170;11.724;2023-04-22T16:14:32;20.80;87.90
3488;DHT22;38546;48.170;11.724;2023-04-22T16:17:22;20.80;89.90
3488;DHT22;38546;48.170;11.724;2023-04-22T16:20:11;21.00;90.40
3488;DHT22;38546;48.170;11.724;2023-04-22T16:23:00;20.70;90.10
3488;DHT22;38546;48.170;11.724;2023-04-22T16:25:50;20.70;90.30
3488;DHT22;38546;48.170;11.724;2023-04-22T16:28:39;20.60;89.80
3488;DHT22;38546;48.170;11.724;2023-04-22T16:31:29;20.50;90.80
3488;DHT22;38546;48.170;11.724;2023-04-22T16:34:18;20.60;90.20
3488;DHT22;38546;48.170;11.724;2023-04-22T16:37:08;20.70;90.00
3488;DHT22;38546;48.170;11.724;2023-04-22T16:39:58;20.70;91.10
3488;DHT22;38546;48.170;11.724;2023-04-22T16:42:49;20.60;91.70
3488;DHT22;38546;48.170;11.724;2023-04-22T16:45:39;20.60;91.70
3488;DHT22;38546;48.170;11.724;2023-04-22T16:48:28;20.50;92.00
3488;DHT22;38546;48.170;11.724;2023-04-22T16:51:17;20.50;92.10
3488;DHT22;38546;48.170;11.724;2023-04-22T16:54:07;20.40;92.40
3488;DHT22;38546;48.170;11.724;2023-04-22T16:56:56;20.40;92.50
3488;DHT22;38546;48.170;11.724;2023-04-22T16:59:45;20.40;92.10
3488;DHT22;38546;48.170;11.724;2023-04-22T17:02:35;20.10;92.20
3488;DHT22;38546;48.170;11.724;2023-04-22T17:05:24;20.10;92.00
3488;DHT22;38546;48.170;11.724;2023-04-22T17:08:13;19.90;92.70
3488;DHT22;38546;48.170;11.724;2023-04-22T17:11:03;19.90;92.90
3488;DHT22;38546;48.170;11.724;2023-04-22T17:13:52;19.90;93.20
3488;DHT22;38546;48.170;11.724;2023-04-22T17:16:41;20.00;93.20
3488;DHT22;38546;48.170;11.724;2023-04-22T17:19:31;19.80;93.50
3488;DHT22;38546;48.170;11.724;2023-04-22T17:22:20;20.00;93.60
3488;DHT22;38546;48.170;11.724;2023-04-22T17:25:12;20.00;93.70
3488;DHT22;38546;48.170;11.724;2023-04-22T17:28:01;19.80;93.90
3488;DHT22;38546;48.170;11.724;2023-04-22T17:30:51;19.50;94.10
3488;DHT22;38546;48.170;11.724;2023-04-22T17:33:41;19.40;94.70
3488;DHT22;38546;48.170;11.724;2023-04-22T17:36:30;19.40;94.60
3488;DHT22;38546;48.170;11.724;2023-04-22T17:39:20;19.20;94.90
3488;DHT22;38546;48.170;11.724;2023-04-22T17:42:10;19.00;95.20
3488;DHT22;38546;48.170;11.724;2023-04-22T17:44:59;19.00;95.20
3488;DHT22;38546;48.170;11.724;2023-04-22T17:47:48;18.90;95.60
3488;DHT22;38546;48.170;11.724;2023-04-22T17:50:38;18.80;95.60
3488;DHT22;38546;48.170;11.724;2023-04-22T17:53:28;18.70;95.70
3488;DHT22;38546;48.170;11.724;2023-04-22T17:56:17;18.60;95.70
3488;DHT22;38546;48.170;11.724;2023-04-22T17:59:07;18.60;95.50
3488;DHT22;38546;48.170;11.724;2023-04-22T18:01:59;18.50;95.80